Time;durP1;ratioP1;P1;durP2;ratioP2;P2;SDS_P1;SDS_P2;PMS_P1;PMS_P2;Temp;Humidity;BMP_temperature;BMP_pressure;BME280_temperature;BME280_humidity;BME280_pressure;Samples;Min_cycle;Max_cycle;Signal;HPM_P1;HPM_P2
2022/09/28 00:01:56;;;;;;;35.83;18.10;;;;;;;7.90;100.00;99001.44;5049078;28;20398;-77
2022/09/28 00:04:21;;;;;;;33.20;19.17;;;;;;;7.86;100.00;98994.84;5048965;28;20033;-77
2022/09/28 00:06:47;;;;;;;35.57;18.90;;;;;;;7.92;100.00;99004.72;5066246;28;20185;-75
2022/09/28 00:09:14;;;;;;;35.05;18.65;;;;;;;7.92;100.00;99002.06;5061796;28;20035;-77
2022/09/28 00:11:40;;;;;;;38.13;18.85;;;;;;;7.83;100.00;98984.59;5049193;28;20051;-76
2022/09/28 00:14:06;;;;;;;34.63;18.08;;;;;;;7.85;100.00;98993.19;5065396;28;20032;-77
2022/09/28 00:16:37;;;;;;;34.70;18.10;;;;;;;7.91;100.00;98988.97;5049664;28;20218;-76
2022/09/28 00:19:05;;;;;;;33.78;17.40;;;;;;;7.88;100.00;98987.50;5067005;28;20039;-77
2022/09/28 00:21:33;;;;;;;32.53;17.45;;;;;;;7.93;100.00;98987.75;5062828;28;20466;-77
2022/09/28 00:24:16;;;;;;;33.95;17.30;;;;;;;7.93;100.00;98981.63;5067161;28;20032;-77
2022/09/28 00:26:53;;;;;;;38.25;18.33;;;;;;;7.91;100.00;98984.47;5059964;28;20571;-77
2022/09/28 00:29:31;;;;;;;27.95;16.95;;;;;;;7.87;100.00;98979.75;5065828;28;20430;-77
2022/09/28 00:32:01;;;;;;;31.67;17.40;;;;;;;7.89;100.00;98970.56;5062362;28;20071;-76
2022/09/28 00:34:34;;;;;;;35.50;17.90;;;;;;;7.86;100.00;98970.09;5065652;28;20072;-76
2022/09/28 00:37:02;;;;;;;30.48;17.05;;;;;;;7.88;100.00;98974.22;5062687;28;20068;-77
2022/09/28 00:39:30;;;;;;;40.28;18.13;;;;;;;7.83;100.00;98973.97;5052776;28;20115;-76
2022/09/28 00:41:56;;;;;;;33.53;16.98;;;;;;;7.81;100.00;98974.16;5062857;28;20032;-77
2022/09/28 00:44:25;;;;;;;29.88;17.25;;;;;;;7.80;100.00;98964.53;5065404;28;20042;-76
2022/09/28 00:47:02;;;;;;;28.70;17.38;;;;;;;7.73;100.00;98952.22;5066236;28;20029;-77
2022/09/28 00:49:48;;;;;;;30.70;17.23;;;;;;;7.70;100.00;98953.41;5051489;28;20396;-76
2022/09/28 00:52:17;;;;;;;26.63;15.95;;;;;;;7.72;100.00;98956.66;5062937;28;20029;-77
2022/09/28 00:54:45;;;;;;;31.40;16.35;;;;;;;7.74;100.00;98949.34;5065215;28;20033;-76
2022/09/28 00:57:12;;;;;;;29.05;16.35;;;;;;;7.72;100.00;98940.72;5060394;28;20047;-77
2022/09/28 00:59:38;;;;;;;27.98;15.00;;;;;;;7.68;100.00;98944.81;5064626;28;20013;-76
2022/09/28 01:02:04;;;;;;;22.17;14.00;;;;;;;7.72;100.00;98935.41;5063620;28;20442;-77
2022/09/28 01:04:29;;;;;;;25.57;15.60;;;;;;;7.72;100.00;98930.09;5047929;28;20036;-76
2022/09/28 01:06:57;;;;;;;24.40;13.98;;;;;;;7.71;100.00;98933.78;5047635;28;20066;-75
2022/09/28 01:09:26;;;;;;;27.17;14.60;;;;;;;7.69;100.00;98927.03;5063679;28;20036;-76
2022/09/28 01:11:51;;;;;;;22.30;13.75;;;;;;;7.67;100.00;98918.41;5044832;28;20036;-75
2022/09/28 01:14:18;;;;;;;22.80;14.47;;;;;;;7.71;100.00;98920.50;5063687;28;20036;-75
2022/09/28 01:16:54;;;;;;;24.73;14.05;;;;;;;7.73;100.00;98915.84;5064731;28;20325;-76
2022/09/28 01:19:57;;;;;;;26.63;13.88;;;;;;;7.78;100.00;98931.22;5049675;28;20094;-74
2022/09/28 01:22:42;;;;;;;25.02;13.75;;;;;;;7.78;100.00;98931.22;5043750;28;20224;-76
2022/09/28 01:25:38;;;;;;;23.45;13.75;;;;;;;7.77;100.00;98926.88;5061381;28;20393;-76
2022/09/28 01:28:08;;;;;;;28.00;15.02;;;;;;;7.71;100.00;98925.81;5075575;28;20275;-76
2022/09/28 01:30:42;;;;;;;29.83;13.45;;;;;;;7.73;100.00;98922.97;5063458;28;20489;-76
2022/09/28 01:33:13;;;;;;;25.75;14.65;;;;;;;7.76;100.00;98927.91;5064841;28;20085;-76
2022/09/28 01:35:51;;;;;;;25.75;14.50;;;;;;;7.69;100.00;98924.38;5047683;28;20279;-76
2022/09/28 01:38:24;;;;;;;29.42;15.25;;;;;;;7.65;100.00;98921.25;5048222;28;20036;-74
2022/09/28 01:40:52;;;;;;;25.85;15.50;;;;;;;7.59;100.00;98925.50;5065926;28;20674;-75
2022/09/28 01:43:26;;;;;;;26.75;14.93;;;;;;;7.53;100.00;98912.13;5046526;28;20013;-75
2022/09/28 01:45:57;;;;;;;23.23;14.43;;;;;;;7.61;100.00;98917.34;5047111;28;20519;-75
2022/09/28 01:48:34;;;;;;;28.15;15.68;;;;;;;7.67;100.00;98913.91;5062716;28;20037;-75
2022/09/28 01:51:04;;;;;;;25.23;13.13;;;;;;;7.67;100.00;98923.72;5053118;28;20059;-75
2022/09/28 01:53:40;;;;;;;29.48;15.02;;;;;;;7.60;100.00;98916.50;5060852;28;20039;-75
2022/09/28 01:56:18;;;;;;;42.38;15.52;;;;;;;7.58;100.00;98913.19;5039166;28;20131;-75
2022/09/28 01:59:10;;;;;;;34.40;16.85;;;;;;;7.50;100.00;98910.69;5063549;28;20484;-75
2022/09/28 02:01:50;;;;;;;32.70;13.98;;;;;;;7.46;100.00;98905.94;5077382;28;20248;-76
2022/09/28 02:04:30;;;;;;;34.80;14.85;;;;;;;7.44;100.00;98903.44;5062825;28;20039;-75
2022/09/28 02:07:01;;;;;;;27.17;14.55;;;;;;;7.44;100.00;98911.41;5098009;22;20055;-78
2022/09/28 02:09:35;;;;;;;29.70;14.05;;;;;;;7.51;100.00;98911.50;5080086;28;20502;-78
2022/09/28 02:12:09;;;;;;;30.15;14.82;;;;;;;7.55;100.00;98918.91;5080649;28;20111;-78
2022/09/28 02:14:37;;;;;;;38.28;16.08;;;;;;;7.48;100.00;98906.56;5080312;28;20437;-78
2022/09/28 02:17:03;;;;;;;33.85;15.40;;;;;;;7.45;100.00;98907.78;5086728;28;20032;-78
2022/09/28 02:19:31;;;;;;;30.10;14.13;;;;;;;7.39;100.00;98892.56;5089048;28;20021;-78
2022/09/28 02:21:59;;;;;;;30.08;15.65;;;;;;;7.40;100.00;98899.56;5084913;28;20276;-78
2022/09/28 02:24:41;;;;;;;31.67;15.43;;;;;;;7.36;100.00;98891.13;5067539;28;20429;-78
2022/09/28 02:27:23;;;;;;;30.52;14.45;;;;;;;7.45;100.00;98906.97;5076250;28;20031;-79
2022/09/28 02:29:48;;;;;;;22.65;12.68;;;;;;;7.47;100.00;98911.06;5079260;28;20029;-78
2022/09/28 02:32:18;;;;;;;23.25;12.77;;;;;;;7.43;100.00;98904.47;5098543;28;20046;-78
2022/09/28 02:34:44;;;;;;;27.17;13.77;;;;;;;7.44;100.00;98905.28;5079528;28;20100;-78
2022/09/28 02:37:09;;;;;;;25.40;13.90;;;;;;;7.36;100.00;98900.94;5078425;28;20035;-78
2022/09/28 02:39:35;;;;;;;26.33;12.52;;;;;;;7.41;100.00;98906.50;5075116;28;20040;-78
2022/09/28 02:42:13;;;;;;;25.27;13.07;;;;;;;7.40;100.00;98899.56;5076384;28;20428;-79
2022/09/28 02:44:44;;;;;;;28.30;13.20;;;;;;;7.39;100.00;98898.69;5092633;28;20496;-79
2022/09/28 02:47:25;;;;;;;25.67;13.02;;;;;;;7.38;100.00;98897.06;5077836;28;20435;-78
2022/09/28 02:50:07;;;;;;;24.90;12.40;;;;;;;7.45;100.00;98894.50;5069914;28;20036;-78
2022/09/28 02:53:03;;;;;;;26.83;12.93;;;;;;;7.40;100.00;98899.56;5067828;28;20076;-78
2022/09/28 02:55:37;;;;;;;27.77;12.82;;;;;;;7.38;100.00;98890.94;5078250;28;20040;-78
2022/09/28 02:58:18;;;;;;;21.77;12.20;;;;;;;7.31;100.00;98884.75;5053453;28;20028;-77
2022/09/28 03:00:53;;;;;;;23.92;11.95;;;;;;;7.24;100.00;98882.00;5064442;28;20524;-78
2022/09/28 03:03:33;;;;;;;27.60;12.80;;;;;;;7.24;100.00;98884.66;5073493;28;20032;-79
2022/09/28 03:06:04;;;;;;;26.92;13.98;;;;;;;7.26;100.00;98887.09;5094085;28;20051;-79
2022/09/28 03:08:41;;;;;;;25.83;13.80;;;;;;;7.29;100.00;98887.56;5084886;28;20113;-79
2022/09/28 03:11:17;;;;;;;33.83;15.02;;;;;;;7.22;100.00;98875.25;5093022;28;20024;-80
2022/09/28 03:13:46;;;;;;;27.73;14.20;;;;;;;7.31;100.00;98879.44;5074606;28;20029;-79
2022/09/28 03:16:18;;;;;;;28.88;12.77;;;;;;;7.33;100.00;98888.03;5072995;28;20117;-78
2022/09/28 03:18:46;;;;;;;26.50;14.43;;;;;;;7.30;100.00;98878.59;5064721;28;20063;-80
2022/09/28 03:21:13;;;;;;;30.27;13.90;;;;;;;7.34;100.00;98882.50;5074186;28;20020;-79
2022/09/28 03:23:39;;;;;;;27.60;14.45;;;;;;;7.32;100.00;98886.38;5059295;28;20037;-80
2022/09/28 03:26:07;;;;;;;22.17;12.65;;;;;;;7.34;100.00;98885.16;5082511;28;20043;-79
2022/09/28 03:28:33;;;;;;;25.27;12.35;;;;;;;7.32;100.00;98889.03;5076854;28;20033;-79
2022/09/28 03:30:59;;;;;;;24.30;11.98;;;;;;;7.22;100.00;98872.59;5095423;28;20019;-78
2022/09/28 03:33:24;;;;;;;24.63;13.50;;;;;;;7.25;100.00;98883.63;5072687;28;20476;-79
2022/09/28 03:35:50;;;;;;;22.10;12.57;;;;;;;7.10;100.00;98872.25;5062414;28;20543;-79
2022/09/28 03:38:17;;;;;;;24.52;13.07;;;;;;;7.14;100.00;98882.31;5067867;28;20037;-78
2022/09/28 03:40:51;;;;;;;27.75;12.88;;;;;;;7.17;100.00;98878.44;5044928;28;20067;-79
2022/09/28 03:43:16;;;;;;;25.50;12.73;;;;;;;7.16;100.00;98877.63;5089885;28;20462;-78
2022/09/28 03:45:42;;;;;;;22.77;12.10;;;;;;;7.17;100.00;98873.16;5060250;28;20143;-79
2022/09/28 03:48:07;;;;;;;26.47;11.70;;;;;;;7.29;100.00;98870.81;5072644;28;20067;-79
2022/09/28 03:50:32;;;;;;;19.57;10.57;;;;;;;7.28;100.00;98874.47;5077587;28;20048;-80
2022/09/28 03:53:01;;;;;;;21.47;11.73;;;;;;;7.30;100.00;98869.81;5070506;28;20035;-79
2022/09/28 03:55:27;;;;;;;18.80;10.93;;;;;;;7.33;100.00;98858.84;5082586;28;20416;-78
2022/09/28 03:57:54;;;;;;;26.33;12.43;;;;;;;7.40;100.00;98859.72;5064743;28;20062;-80
2022/09/28 04:00:20;;;;;;;22.65;11.55;;;;;;;7.42;100.00;98870.94;5061108;28;20090;-79
2022/09/28 04:02:45;;;;;;;27.35;13.40;;;;;;;7.38;100.00;98864.41;5078235;28;20595;-79
2022/09/28 04:05:11;;;;;;;19.47;11.07;;;;;;;7.45;100.00;98875.09;5051654;28;20075;-79
2022/09/28 04:07:36;;;;;;;28.63;12.00;;;;;;;7.43;100.00;98867.31;5050885;28;20021;-77
2022/09/28 04:10:02;;;;;;;23.13;12.00;;;;;;;7.39;100.00;98874.00;5078056;28;20059;-78
2022/09/28 04:12:27;;;;;;;26.88;12.27;;;;;;;7.32;100.00;98863.28;5067914;28;20021;-79
2022/09/28 04:14:52;;;;;;;28.00;12.60;;;;;;;7.31;100.00;98864.31;5066475;28;20047;-78
2022/09/28 04:17:18;;;;;;;19.57;10.50;;;;;;;7.22;100.00;98851.34;5063196;28;20034;-78
2022/09/28 04:19:45;;;;;;;21.23;10.77;;;;;;;7.22;100.00;98848.69;5081318;28;20416;-79
2022/09/28 04:22:23;;;;;;;19.83;11.32;;;;;;;7.30;100.00;98852.03;5090031;28;20052;-79
2022/09/28 04:24:49;;;;;;;21.90;10.53;;;;;;;7.30;100.00;98849.38;5079605;28;20043;-78
2022/09/28 04:29:59;;;;;;;20.58;11.18;;;;;;;7.31;100.00;98851.03;5067892;28;20024;-80
2022/09/28 04:32:25;;;;;;;18.50;11.20;;;;;;;7.24;100.00;98844.03;5075709;28;20025;-79
2022/09/28 04:34:51;;;;;;;20.60;10.38;;;;;;;7.24;100.00;98842.19;5065943;28;20970;-80
2022/09/28 04:37:16;;;;;;;20.30;11.63;;;;;;;7.29;100.00;98841.63;5075399;28;20066;-77
2022/09/28 04:39:42;;;;;;;23.83;12.10;;;;;;;7.27;100.00;98841.00;5073383;28;20025;-78
2022/09/28 04:42:09;;;;;;;25.43;12.90;;;;;;;7.31;100.00;98844.91;5100956;28;20029;-79
2022/09/28 04:44:34;;;;;;;;;;;;;;;7.35;100.00;98848.81;5084889;28;20024;-80
2022/09/28 04:47:06;;;;;;;20.85;11.23;;;;;;;7.33;100.00;98848.22;5075957;28;19916;-78
2022/09/28 04:50:06;;;;;;;23.17;11.77;;;;;;;7.34;100.00;98852.50;5080050;28;20096;-80
2022/09/28 04:52:35;;;;;;;21.60;11.57;;;;;;;7.29;100.00;98841.63;5082089;28;20021;-79
2022/09/28 04:55:01;;;;;;;19.95;11.65;;;;;;;7.32;100.00;98844.72;5067958;28;20337;-80
2022/09/28 04:57:26;;;;;;;21.90;10.80;;;;;;;7.33;100.00;98850.88;5080247;28;20032;-77
2022/09/28 04:59:53;;;;;;;19.45;10.68;;;;;;;7.29;100.00;98853.06;5076537;28;20457;-80
2022/09/28 05:02:19;;;;;;;27.23;12.40;;;;;;;7.27;100.00;98857.72;5067972;28;20111;-80
2022/09/28 05:05:10;;;;;;;26.70;12.88;;;;;;;7.24;100.00;98857.31;5059364;28;20107;-80
2022/09/28 05:07:35;;;;;;;27.57;12.57;;;;;;;7.29;100.00;98860.22;5082571;28;20104;-78
2022/09/28 05:10:04;;;;;;;25.75;12.43;;;;;;;7.26;100.00;98865.88;5089205;28;20044;-78
2022/09/28 05:12:31;;;;;;;22.60;11.23;;;;;;;7.26;100.00;98865.88;5081906;28;20470;-80
2022/09/28 05:14:59;;;;;;;30.05;12.10;;;;;;;7.24;100.00;98876.69;5079164;28;20318;-82
2022/09/28 05:17:25;;;;;;;27.83;13.05;;;;;;;7.24;100.00;98873.22;5093263;28;20028;-80
2022/09/28 05:20:10;;;;;;;24.60;12.50;;;;;;;7.23;100.00;98876.88;5080730;28;20423;-79
2022/09/28 05:22:36;;;;;;;29.92;12.90;;;;;;;7.12;100.00;98875.53;5065582;28;20056;-79
2022/09/28 05:25:03;;;;;;;30.40;11.88;;;;;;;7.00;100.00;98867.22;5079479;28;20024;-78
2022/09/28 05:27:35;;;;;;;24.33;11.38;;;;;;;6.94;100.00;98858.16;5063634;28;21173;-80
2022/09/28 05:30:14;;;;;;;20.60;11.05;;;;;;;7.02;100.00;98867.03;5066126;28;20492;-79
2022/09/28 05:33:07;;;;;;;21.75;11.30;;;;;;;7.02;100.00;98864.38;5056817;28;20493;-79
2022/09/28 05:35:40;;;;;;;22.42;11.75;;;;;;;7.05;100.00;98872.78;5066039;28;20568;-78
2022/09/28 05:38:05;;;;;;;28.50;10.50;;;;;;;7.07;100.00;98862.81;5080641;28;20440;-80
2022/09/28 05:40:31;;;;;;;26.90;12.18;;;;;;;7.12;100.00;98865.75;5065355;28;20024;-78
2022/09/28 05:42:58;;;;;;;22.57;12.53;;;;;;;7.08;100.00;98858.34;5084199;28;20071;-80
2022/09/28 05:45:24;;;;;;;25.70;13.20;;;;;;;7.04;100.00;98855.22;5086729;28;20098;-80
2022/09/28 05:47:49;;;;;;;24.23;12.57;;;;;;;7.06;100.00;98855.84;5078940;28;20033;-80
2022/09/28 05:50:17;;;;;;;26.40;11.98;;;;;;;7.11;100.00;98853.47;5072799;28;20035;-80
2022/09/28 05:52:43;;;;;;;28.57;12.47;;;;;;;7.19;100.00;98861.31;5073918;28;20021;-79
2022/09/28 05:55:09;;;;;;;30.20;12.13;;;;;;;7.26;100.00;98864.06;5090451;28;20048;-80
2022/09/28 05:57:35;;;;;;;21.30;10.43;;;;;;;7.34;100.00;98871.09;5060980;28;20040;-79
2022/09/28 06:00:04;;;;;;;25.02;12.30;;;;;;;7.38;100.00;98880.31;5082693;28;20036;-79
2022/09/28 06:02:37;;;;;;;31.67;14.05;;;;;;;7.38;100.00;98877.66;5078715;28;20036;-79
2022/09/28 06:05:04;;;;;;;27.70;14.05;;;;;;;7.36;100.00;98882.34;5100038;28;20053;-79
2022/09/28 06:07:29;;;;;;;25.25;14.10;;;;;;;7.34;100.00;98879.88;5063232;28;20477;-79
2022/09/28 06:09:55;;;;;;;24.00;13.47;;;;;;;7.40;100.00;98889.75;5077912;28;20177;-80
2022/09/28 06:12:37;;;;;;;29.25;13.88;;;;;;;7.46;100.00;98885.50;5095572;28;20112;-79
2022/09/28 06:15:09;;;;;;;26.83;12.48;;;;;;;7.53;100.00;98888.25;5065932;28;20389;-79
2022/09/28 06:17:35;;;;;;;29.87;13.93;;;;;;;7.59;100.00;98893.63;5080576;28;20059;-80
2022/09/28 06:20:18;;;;;;;30.23;15.38;;;;;;;7.55;100.00;98881.72;5069004;28;20096;-80
2022/09/28 06:22:56;;;;;;;33.47;14.65;;;;;;;7.33;100.00;98877.41;5079377;28;20016;-79
2022/09/28 06:25:22;;;;;;;30.95;13.55;;;;;;;7.36;100.00;98877.03;5080405;28;20062;-78
2022/09/28 06:27:54;;;;;;;26.65;14.05;;;;;;;7.34;100.00;98869.25;5078007;28;20040;-79
2022/09/28 06:30:20;;;;;;;33.60;14.23;;;;;;;7.34;100.00;98884.34;5064088;28;20027;-79
2022/09/28 06:32:45;;;;;;;33.00;15.25;;;;;;;7.28;100.00;98879.78;5065599;28;20009;-79
2022/09/28 06:35:10;;;;;;;28.83;14.27;;;;;;;7.29;100.00;98886.75;5086823;28;20044;-79
2022/09/28 06:37:36;;;;;;;30.83;13.80;;;;;;;7.21;100.00;98878.88;5080747;28;20037;-80
2022/09/28 06:40:01;;;;;;;29.40;14.17;;;;;;;7.21;100.00;98879.72;5083084;28;20126;-80
2022/09/28 06:42:28;;;;;;;26.88;13.18;;;;;;;7.13;100.00;98880.63;5092813;28;20020;-79
2022/09/28 06:45:12;;;;;;;28.05;14.75;;;;;;;7.19;100.00;98879.91;5080347;28;20101;-79
2022/09/28 06:48:01;;;;;;;28.67;13.80;;;;;;;7.27;100.00;98889.59;5068755;28;20545;-79
2022/09/28 06:50:38;;;;;;;25.00;13.48;;;;;;;7.27;100.00;98892.25;5063835;28;20060;-79
2022/09/28 06:53:26;;;;;;;22.95;13.63;;;;;;;7.31;100.00;98890.88;5076123;28;20047;-79
2022/09/28 06:56:01;;;;;;;;;;;;;;;7.45;100.00;98902.47;5044158;28;20078;-80
2022/09/28 06:58:27;;;;;;;28.77;14.57;;;;;;;7.29;100.00;98900.03;5064336;28;19961;-79
2022/09/28 07:00:58;;;;;;;27.13;12.48;;;;;;;7.28;100.00;98893.06;5055408;28;20024;-79
2022/09/28 07:03:25;;;;;;;22.95;12.85;;;;;;;7.21;100.00;98885.03;5068227;28;20025;-79
2022/09/28 07:05:53;;;;;;;26.00;12.80;;;;;;;7.29;100.00;98886.75;5092576;28;20630;-79
2022/09/28 07:08:38;;;;;;;22.95;12.10;;;;;;;7.40;100.00;98894.25;5041630;28;20059;-79
2022/09/28 07:11:38;;;;;;;25.83;12.05;;;;;;;7.43;100.00;98904.47;5073386;28;20070;-80
2022/09/28 07:14:19;;;;;;;27.08;11.90;;;;;;;7.51;100.00;98906.19;5072627;28;20048;-80
2022/09/28 07:16:45;;;;;;;27.23;13.38;;;;;;;7.29;100.00;98900.03;5069268;28;20037;-80
2022/09/28 07:19:10;;;;;;;33.80;12.75;;;;;;;7.39;100.00;98906.66;5097275;28;20591;-79
2022/09/28 07:21:36;;;;;;;26.03;13.50;;;;;;;7.44;100.00;98910.59;5073379;28;20037;-79
2022/09/28 07:24:03;;;;;;;29.25;14.27;;;;;;;7.47;100.00;98919.03;5089915;28;20109;-80
2022/09/28 07:26:49;;;;;;;35.55;18.65;;;;;;;7.46;100.00;98916.56;5064756;28;20028;-80
2022/09/28 07:29:38;;;;;;;31.85;16.50;;;;;;;7.35;100.00;98913.38;5077669;28;20051;-79
2022/09/28 07:32:36;;;;;;;33.70;18.95;;;;;;;7.40;100.00;98910.97;5078135;28;20086;-79
2022/09/28 07:35:21;;;;;;;30.67;16.48;;;;;;;7.16;100.00;98916.59;5084155;28;20047;-79
2022/09/28 07:38:00;;;;;;;34.20;16.73;;;;;;;7.21;100.00;98922.19;5073467;28;20024;-78
2022/09/28 07:43:11;;;;;;;36.67;17.07;;;;;;;7.26;100.00;98919.81;5082050;28;20011;-78
2022/09/28 07:45:37;;;;;;;29.98;16.10;;;;;;;7.36;100.00;98925.63;5068422;28;20311;-78
2022/09/28 07:48:03;;;;;;;31.33;16.42;;;;;;;7.32;100.00;98921.69;5076176;28;20048;-78
2022/09/28 07:50:36;;;;;;;35.90;18.95;;;;;;;7.33;100.00;98918.06;5056613;28;20086;-79
2022/09/28 07:53:11;;;;;;;36.60;17.00;;;;;;;7.42;100.00;98908.13;5061477;28;20514;-78
2022/09/28 07:55:50;;;;;;;34.28;16.75;;;;;;;7.55;100.00;98923.41;5069922;28;20035;-78
2022/09/28 07:58:36;;;;;;;53.53;18.90;;;;;;;7.59;100.00;98930.81;5063159;28;20112;-78
2022/09/28 08:01:36;;;;;;;27.20;15.50;;;;;;;7.79;100.00;98933.66;5085099;28;20055;-78
2022/09/28 08:04:02;;;;;;;36.77;20.07;;;;;;;7.80;100.00;98937.16;5074267;28;20028;-78
2022/09/28 08:06:29;;;;;;;36.13;17.53;;;;;;;7.77;100.00;98932.19;5055663;28;20036;-79
2022/09/28 08:08:58;;;;;;;37.38;18.85;;;;;;;7.70;100.00;98929.50;5055412;28;20465;-79
2022/09/28 08:11:35;;;;;;;33.22;18.25;;;;;;;7.72;100.00;98923.97;5076361;28;20028;-79
2022/09/28 08:14:20;;;;;;;28.58;17.20;;;;;;;7.78;100.00;98925.91;5064447;28;20036;-79
2022/09/28 08:17:00;;;;;;;33.50;18.80;;;;;;;7.83;100.00;98921.66;5069328;28;20024;-79
2022/09/28 08:22:23;;;;;;;27.80;15.82;;;;;;;8.21;100.00;98933.84;5093579;28;20090;-78
2022/09/28 08:24:50;;;;;;;40.03;16.30;;;;;;;7.97;100.00;98922.59;5068765;28;20106;-78
2022/09/28 08:27:17;;;;;;;30.33;16.25;;;;;;;7.94;100.00;98915.03;5058671;28;20667;-77
2022/09/28 08:29:42;;;;;;;;;;;;;;;7.75;100.00;98908.50;5058326;28;20060;-78
2022/09/28 08:32:27;;;;;;;25.55;13.68;;;;;;;8.00;100.00;98916.06;5068593;28;20395;-79
2022/09/28 08:35:25;;;;;;;27.88;15.60;;;;;;;8.12;100.00;98919.03;5082806;28;20047;-78
2022/09/28 08:38:17;;;;;;;29.27;16.08;;;;;;;8.77;100.00;98944.53;5043887;28;20078;-79
2022/09/28 08:41:22;;;;;;;21.85;13.60;;;;;;;9.02;100.00;98931.59;5075770;28;20032;-78
2022/09/28 08:44:22;;;;;;;19.10;12.60;;;;;;;8.62;100.00;98886.13;5087149;28;20121;-78
2022/09/28 08:48:42;;;;;;;30.02;15.27;;;;;;;8.60;100.00;98882.03;5073275;28;20067;-79
2022/09/28 08:50:25;;;;;;;34.72;17.48;;;;;;;8.45;100.00;98892.75;5071309;28;20062;-77
2022/09/28 08:53:20;;;;;;;30.65;18.05;;;;;;;8.64;100.00;98902.72;5075902;28;20438;-78
2022/09/28 08:56:04;;;;;;;26.50;14.57;;;;;;;8.77;100.00;98912.59;5051291;28;20040;-77
2022/09/28 08:58:38;;;;;;;23.75;14.38;;;;;;;8.75;100.00;98892.53;5050548;28;20033;-77
2022/09/28 09:01:07;;;;;;;21.65;13.32;;;;;;;8.49;100.00;98882.56;5093905;28;20024;-78
2022/09/28 09:03:38;;;;;;;22.55;11.88;;;;;;;8.86;100.00;98894.66;5066319;28;20020;-77
2022/09/28 09:06:49;;;;;;;23.77;14.60;;;;;;;9.27;100.00;98886.66;5082734;28;20040;-77
2022/09/28 09:09:58;;;;;;;24.33;14.43;;;;;;;9.24;100.00;98880.91;5052747;28;20563;-77
2022/09/28 09:12:39;;;;;;;21.50;12.23;;;;;;;9.38;100.00;98877.25;5047918;28;20036;-77
2022/09/28 09:15:47;;;;;;;28.05;15.77;;;;;;;9.55;100.00;98872.38;5074147;28;20081;-77
2022/09/28 09:18:42;;;;;;;21.73;14.00;;;;;;;9.67;100.00;98860.13;5078746;28;20558;-77
2022/09/28 09:21:59;;;;;;;25.08;15.38;;;;;;;9.60;100.00;98826.47;5047705;28;20033;-77
2022/09/28 09:24:29;;;;;;;23.75;15.20;;;;;;;9.65;100.00;98824.03;5085556;28;20035;-76
2022/09/28 09:27:22;;;;;;;23.60;15.45;;;;;;;9.46;100.00;98817.66;5064618;28;20047;-76
2022/09/28 09:30:03;;;;;;;21.48;13.88;;;;;;;9.20;100.00;98821.91;5073997;28;20075;-77
2022/09/28 09:32:40;;;;;;;24.55;14.65;;;;;;;9.06;100.00;98831.69;5080452;28;20017;-78
2022/09/28 09:35:40;;;;;;;27.70;15.27;;;;;;;9.21;100.00;98892.75;5048150;28;20127;-77
2022/09/28 09:38:32;;;;;;;25.35;15.82;;;;;;;9.18;100.00;98889.69;5080493;28;20028;-77
2022/09/28 09:41:32;;;;;;;26.17;15.25;;;;;;;9.46;100.00;98925.03;5067397;28;20167;-77
2022/09/28 09:44:32;;;;;;;20.40;13.90;;;;;;;9.71;100.00;98909.31;5069099;28;20055;-77
2022/09/28 09:47:21;;;;;;;22.77;14.82;;;;;;;10.23;100.00;98904.25;5048085;28;20029;-77
2022/09/28 09:50:10;;;;;;;23.38;15.35;;;;;;;10.34;100.00;98854.81;5079190;28;20086;-77
2022/09/28 09:52:47;;;;;;;23.30;16.08;;;;;;;9.73;100.00;98792.66;5068416;28;20296;-77
2022/09/28 09:55:26;;;;;;;24.35;15.38;;;;;;;9.84;100.00;98798.44;5096617;28;20053;-77
2022/09/28 09:58:11;;;;;;;22.10;15.35;;;;;;;10.15;100.00;98843.13;5079491;28;20031;-76
2022/09/28 10:00:52;;;;;;;24.20;14.88;;;;;;;10.52;100.00;98867.53;5075797;28;20115;-77
2022/09/28 10:03:41;;;;;;;22.45;15.38;;;;;;;10.14;100.00;98817.50;5075782;28;20029;-77
2022/09/28 10:06:18;;;;;;;28.52;16.00;;;;;;;10.15;100.00;98835.94;5067777;28;20085;-76
2022/09/28 10:08:49;;;;;;;23.25;15.93;;;;;;;10.18;100.00;98825.88;5074598;28;20025;-76
2022/09/28 10:11:26;;;;;;;21.75;13.25;;;;;;;10.51;100.00;98832.03;5076923;28;20028;-77
2022/09/28 10:13:54;;;;;;;20.70;13.90;;;;;;;11.12;100.00;98819.28;5079304;28;20115;-77
2022/09/28 10:16:51;;;;;;;16.33;11.77;;;;;;;10.43;100.00;98704.19;5066992;28;20149;-76
2022/09/28 10:19:37;;;;;;;19.63;13.23;;;;;;;10.60;100.00;98762.41;5092417;28;20136;-77
2022/09/28 10:22:24;;;;;;;20.30;12.07;;;;;;;10.42;100.00;98782.59;5069983;28;20054;-76
2022/09/28 10:24:56;;;;;;;19.83;12.68;;;;;;;10.67;100.00;98813.91;5081142;28;20035;-76
2022/09/28 10:27:30;;;;;;;19.92;12.30;;;;;;;11.07;100.00;98859.16;5079666;28;20039;-77
2022/09/28 10:30:19;;;;;;;17.90;11.90;;;;;;;11.08;100.00;98802.88;5041251;28;20397;-76
2022/09/28 10:32:48;;;;;;;22.05;14.25;;;;;;;11.04;100.00;98782.16;5085644;28;20162;-76
2022/09/28 10:35:40;;;;;;;17.15;12.07;;;;;;;11.17;100.00;98798.09;5071798;28;20119;-77
2022/09/28 10:38:17;;;;;;;22.50;12.38;;;;;;;11.18;100.00;98767.69;5089377;28;20024;-76
2022/09/28 10:40:54;;;;;;;19.08;13.00;;;;;;;10.72;100.00;98758.03;5095804;28;20051;-76
2022/09/28 10:44:04;;;;;;;17.10;11.50;;;;;;;10.99;100.00;98853.03;5075494;28;20086;-76
2022/09/28 10:46:34;;;;;;;27.92;13.57;;;;;;;10.52;100.00;98785.63;5063407;28;20073;-76
2022/09/28 10:49:16;;;;;;;20.73;12.90;;;;;;;10.53;100.00;98779.25;5067288;28;20054;-77
2022/09/28 10:51:48;;;;;;;18.88;11.55;;;;;;;10.69;100.00;98873.25;5081963;28;20094;-77
2022/09/28 10:54:27;;;;;;;19.48;11.63;;;;;;;10.55;100.00;98872.44;5076871;28;20396;-76
2022/09/28 10:56:56;;;;;;;17.52;10.88;;;;;;;10.62;100.00;98915.13;5079571;28;20400;-76
2022/09/28 10:59:30;;;;;;;19.63;11.82;;;;;;;11.07;100.00;98945.41;5067421;28;20063;-77
2022/09/28 11:02:34;;;;;;;15.30;10.50;;;;;;;10.92;100.00;98894.94;4975765;28;20114;-76
2022/09/28 11:05:06;;;;;;;20.83;12.10;;;;;;;10.94;100.00;98913.44;4951930;28;20042;-76
2022/09/28 11:07:46;;;;;;;17.55;11.50;;;;;;;10.95;100.00;98894.50;4951687;28;20041;-76
2022/09/28 11:10:21;;;;;;;19.17;11.10;;;;;;;10.69;100.00;98868.72;4960987;28;20030;-76
2022/09/28 11:12:48;;;;;;;15.38;10.32;;;;;;;10.87;100.00;98913.44;4964879;28;20035;-76
2022/09/28 11:15:20;;;;;;;16.23;9.55;;;;;;;10.66;100.00;98860.31;4965110;28;20030;-76
2022/09/28 11:17:47;;;;;;;13.73;8.88;;;;;;;10.47;100.00;98848.66;4972823;28;20188;-76
2022/09/28 11:20:23;;;;;;;14.85;8.52;;;;;;;9.96;100.00;98793.31;4964639;28;20044;-76
2022/09/28 11:22:50;;;;;;;14.20;8.60;;;;;;;9.97;100.00;98889.03;4961506;28;20489;-79
2022/09/28 11:25:15;;;;;;;17.17;8.60;;;;;;;10.38;100.00;98924.59;4956988;28;20026;-76
2022/09/28 11:27:50;;;;;;;13.60;8.00;;;;;;;10.62;100.00;98950.63;4939921;28;20049;-76
2022/09/28 11:30:19;;;;;;;10.80;8.00;;;;;;;10.46;100.00;98913.69;4964496;28;20076;-76
2022/09/28 11:33:19;;;;;;;14.25;7.47;;;;;;;10.20;100.00;98869.16;4962562;28;20192;-76
2022/09/28 11:36:12;;;;;;;11.25;7.43;;;;;;;10.48;100.00;98920.47;4975127;28;20115;-76
2022/09/28 11:39:10;;;;;;;14.57;8.73;;;;;;;10.92;100.00;98945.66;5050419;28;20082;-75
2022/09/28 11:41:57;;;;;;;11.95;7.60;;;;;;;11.15;100.00;98920.34;5015882;28;20517;-76
2022/09/28 11:44:46;;;;;;;17.70;7.45;;;;;;;10.90;100.00;98870.31;5012573;28;20121;-76
2022/09/28 11:47:27;;;;;;;11.70;7.70;;;;;;;11.40;100.00;98913.28;5024802;28;20042;-76
2022/09/28 11:50:00;;;;;;;15.75;8.75;;;;;;;11.56;100.00;98879.06;5012740;28;20029;-76
2022/09/28 11:52:42;;;;;;;14.35;8.20;;;;;;;11.70;100.00;98853.88;5012559;28;20033;-76
2022/09/28 11:55:13;;;;;;;14.13;7.63;;;;;;;11.56;100.00;98758.78;4996450;28;20037;-76
2022/09/28 11:57:44;;;;;;;12.82;8.50;;;;;;;11.66;100.00;98732.41;5009019;28;20161;-76
2022/09/28 12:00:27;;;;;;;13.35;7.50;;;;;;;12.08;100.00;98778.16;5002350;28;20448;-76
2022/09/28 12:03:07;;;;;;;12.18;7.35;;;;;;;12.06;100.00;98640.28;5019984;28;20151;-76